Time;durP1;ratioP1;P1;durP2;ratioP2;P2;SDS_P1;SDS_P2;PMS_P1;PMS_P2;Temp;Humidity;BMP_temperature;BMP_pressure;BME280_temperature;BME280_humidity;BME280_pressure;Samples;Min_cycle;Max_cycle;Signal;HPM_P1;HPM_P2
2022/09/26 00:04:52;;;;;;;5.03;4.27;;;;;;;19.02;62.75;96251.97;10506216;28;20089;-31
2022/09/26 00:09:54;;;;;;;5.55;4.43;;;;;;;19.01;63.07;96250.28;10535519;28;20036;-30
2022/09/26 00:14:54;;;;;;;5.70;4.72;;;;;;;18.98;62.75;96245.25;10535640;28;20028;-30
2022/09/26 00:19:55;;;;;;;6.87;4.70;;;;;;;18.98;63.02;96242.72;10535075;28;20039;-32
2022/09/26 00:24:55;;;;;;;5.53;4.60;;;;;;;18.98;63.36;96247.78;10534712;28;20347;-30
2022/09/26 00:29:55;;;;;;;7.03;4.93;;;;;;;18.99;63.48;96241.03;10535045;28;20048;-30
2022/09/26 00:34:56;;;;;;;6.60;4.33;;;;;;;18.99;63.38;96241.84;10541335;28;20411;-30
2022/09/26 00:39:56;;;;;;;8.73;5.47;;;;;;;19.02;64.66;96233.38;10576494;28;20044;-31
2022/09/26 00:44:58;;;;;;;6.30;4.50;;;;;;;19.06;64.47;96227.41;10534978;28;20119;-30
2022/09/26 00:50:05;;;;;;;6.45;4.70;;;;;;;19.04;62.82;96217.28;10533131;27;20538;-30
2022/09/26 00:55:10;;;;;;;7.28;4.38;;;;;;;18.98;62.91;96206.34;10553459;27;20043;-30
2022/09/26 01:00:13;;;;;;;5.07;4.43;;;;;;;19.01;62.55;96207.16;10515046;28;20404;-31
2022/09/26 01:05:17;;;;;;;4.93;3.60;;;;;;;19.00;62.96;96219.88;10559044;27;20036;-31
2022/09/26 01:10:17;;;;;;;7.68;4.18;;;;;;;18.98;62.72;96211.41;10533328;28;20485;-31
2022/09/26 01:15:18;;;;;;;7.28;4.00;;;;;;;18.97;62.78;96199.59;10544173;27;20084;-30
2022/09/26 01:20:31;;;;;;;6.72;4.18;;;;;;;18.98;63.15;96193.66;10595674;27;20042;-29
2022/09/26 01:25:58;;;;;;;6.85;4.70;;;;;;;18.96;62.54;96188.63;10554255;28;20426;-30
2022/09/26 01:31:08;;;;;;;6.57;4.25;;;;;;;18.97;62.98;96189.44;10514970;28;20499;-30
2022/09/26 01:36:33;;;;;;;8.20;4.00;;;;;;;18.99;64.63;96183.50;10514137;28;20407;-30
2022/09/26 01:42:12;;;;;;;5.57;4.28;;;;;;;19.04;64.32;96186.00;10532503;28;20119;-31
2022/09/26 01:47:34;;;;;;;4.15;3.67;;;;;;;19.04;62.67;96175.84;10501482;28;20407;-31
2022/09/26 01:52:41;;;;;;;4.32;3.90;;;;;;;18.94;62.85;96154.84;10531271;28;20035;-30
2022/09/26 01:58:01;;;;;;;7.28;4.13;;;;;;;19.01;62.80;96170.81;10538705;28;20025;-30
2022/09/26 02:03:08;;;;;;;5.00;3.95;;;;;;;18.98;63.04;96163.22;10522955;28;20039;-31
2022/09/26 02:08:38;;;;;;;7.25;4.15;;;;;;;18.96;62.85;96157.31;10521863;28;20100;-30
2022/09/26 02:13:57;;;;;;;6.47;4.50;;;;;;;18.90;63.28;96144.69;10539992;28;20561;-30
2022/09/26 02:19:09;;;;;;;4.88;3.72;;;;;;;18.96;63.09;96148.03;10540411;28;20118;-30
2022/09/26 02:24:09;;;;;;;4.60;3.95;;;;;;;18.97;63.15;96138.72;10505293;28;20141;-29
2022/09/26 02:29:13;;;;;;;6.85;4.10;;;;;;;18.95;62.98;96135.34;10521392;28;20095;-29
2022/09/26 02:34:14;;;;;;;7.90;4.30;;;;;;;18.98;64.42;96132.78;10520947;28;20040;-30
2022/09/26 02:39:15;;;;;;;4.50;3.85;;;;;;;19.00;64.12;96133.63;10520999;28;20039;-30
2022/09/26 02:45:07;;;;;;;4.88;4.10;;;;;;;19.04;62.99;96120.03;10520346;28;20028;-30
2022/09/26 02:50:31;;;;;;;6.95;3.88;;;;;;;19.01;62.73;96117.53;10563889;27;20034;-29
2022/09/26 02:56:16;;;;;;;5.60;3.65;;;;;;;18.99;62.94;96111.66;10514966;28;20039;-31
2022/09/26 03:01:27;;;;;;;4.50;3.70;;;;;;;18.98;62.79;96104.88;10520350;28;20174;-30
2022/09/26 03:06:36;;;;;;;9.95;3.83;;;;;;;18.92;63.00;96090.56;10519460;28;20035;-30
2022/09/26 03:11:39;;;;;;;4.65;3.65;;;;;;;18.95;63.08;96092.25;10536946;28;20474;-30
2022/09/26 03:16:44;;;;;;;4.97;3.53;;;;;;;18.94;63.17;96082.94;10520116;28;20032;-30
2022/09/26 03:21:44;;;;;;;4.82;3.70;;;;;;;18.90;63.19;96076.22;10519385;28;20040;-30
2022/09/26 03:26:46;;;;;;;5.22;3.15;;;;;;;18.96;63.00;96093.91;10518893;28;20036;-29
2022/09/26 03:31:49;;;;;;;4.30;3.90;;;;;;;18.95;63.94;96084.63;10519029;28;20548;-30
2022/09/26 03:36:49;;;;;;;3.30;3.00;;;;;;;19.00;64.11;96082.88;10518603;28;20497;-30
2022/09/26 03:41:51;;;;;;;7.63;3.75;;;;;;;19.03;62.55;96068.47;10545972;27;20023;-32
2022/09/26 03:47:04;;;;;;;5.40;3.47;;;;;;;18.99;62.87;96066.00;10565907;27;20027;-31
2022/09/26 03:52:10;;;;;;;4.43;3.28;;;;;;;19.00;62.49;96062.59;10559162;27;20081;-30
2022/09/26 03:57:13;;;;;;;4.60;3.22;;;;;;;19.00;62.59;96058.34;10566325;27;20085;-30
2022/09/26 04:02:19;;;;;;;3.72;3.33;;;;;;;19.00;62.36;96052.44;10568714;27;20028;-30
2022/09/26 04:07:25;;;;;;;4.43;3.42;;;;;;;19.00;62.81;96047.38;10565891;27;20042;-29
2022/09/26 04:12:26;;;;;;;6.05;3.58;;;;;;;19.00;62.83;96057.53;10600567;27;20035;-30
2022/09/26 04:17:28;;;;;;;4.70;3.60;;;;;;;19.01;62.93;96065.09;10602792;27;20043;-30
2022/09/26 04:22:28;;;;;;;3.65;3.03;;;;;;;18.99;63.55;96076.13;10542253;27;20027;-30
2022/09/26 04:27:28;;;;;;;6.17;3.60;;;;;;;18.98;63.22;96071.91;10564683;27;20031;-30
2022/09/26 04:32:30;;;;;;;5.65;4.22;;;;;;;19.01;63.59;96087.09;10599280;27;20038;-30
2022/09/26 04:37:49;;;;;;;7.78;3.50;;;;;;;19.04;63.61;96079.44;10576300;27;20048;-31
2022/09/26 04:42:50;;;;;;;3.85;3.00;;;;;;;19.05;62.11;96078.56;10555138;27;20036;-30
2022/09/26 04:47:50;;;;;;;4.70;3.50;;;;;;;18.99;61.14;96071.88;10548412;27;20442;-30
2022/09/26 04:53:11;;;;;;;11.95;3.65;;;;;;;18.75;60.26;96068.81;10560067;27;20035;-31
2022/09/26 04:58:31;;;;;;;6.13;2.45;;;;;;;18.71;60.04;96052.78;10571161;27;20079;-30
2022/09/26 05:03:32;;;;;;;7.55;2.55;;;;;;;18.82;60.41;96058.56;10590643;27;20043;-32
2022/09/26 05:08:35;;;;;;;4.93;2.17;;;;;;;18.79;59.79;96063.69;10537610;28;20038;-31
2022/09/26 05:13:36;;;;;;;9.63;3.53;;;;;;;18.72;60.28;96051.06;10515302;28;20465;-31
2022/09/26 05:18:38;;;;;;;8.40;2.75;;;;;;;18.86;60.60;96059.38;10514914;28;20035;-30
2022/09/26 05:29:03;;;;;;;4.18;2.53;;;;;;;18.99;61.70;96040.63;10543688;28;20115;-31
2022/09/26 05:34:14;;;;;;;14.32;3.05;;;;;;;18.86;57.88;96024.72;10554640;28;20036;-30
2022/09/26 05:44:33;;;;;;;7.07;2.65;;;;;;;18.78;60.00;96035.81;10564397;28;20039;-30
2022/09/26 05:49:35;;;;;;;7.45;2.38;;;;;;;18.85;60.53;96032.34;10514247;28;20422;-31
2022/09/26 05:54:36;;;;;;;5.75;2.33;;;;;;;18.86;60.78;96031.47;10555973;28;20031;-30
2022/09/26 05:59:46;;;;;;;8.60;3.28;;;;;;;18.88;61.30;96027.22;10518527;28;20042;-30
2022/09/26 06:05:08;;;;;;;4.43;1.98;;;;;;;18.88;61.24;96022.16;10520939;28;20048;-30
2022/09/26 06:10:36;;;;;;;3.15;2.28;;;;;;;18.89;61.37;96016.22;10532430;28;20476;-31
2022/09/26 06:15:38;;;;;;;6.70;2.45;;;;;;;18.81;61.44;95998.56;10574016;28;20048;-30
2022/09/26 06:20:39;;;;;;;6.95;2.75;;;;;;;18.90;61.67;96002.66;10536435;28;20519;-31
2022/09/26 06:25:39;;;;;;;5.57;2.55;;;;;;;18.91;61.82;96011.97;10513315;28;20038;-30
2022/09/26 06:30:40;;;;;;;9.40;3.03;;;;;;;18.91;62.12;96001.84;10513835;28;20024;-29
2022/09/26 06:35:45;;;;;;;3.30;2.85;;;;;;;18.92;61.15;95996.72;10513002;28;20035;-30
2022/09/26 06:40:53;;;;;;;4.32;2.63;;;;;;;18.91;61.10;95989.16;10516312;28;20054;-30
2022/09/26 06:45:54;;;;;;;5.50;3.35;;;;;;;18.91;61.33;95979.84;10520525;28;20111;-30
2022/09/26 06:51:14;;;;;;;3.65;2.10;;;;;;;18.91;61.39;95984.91;10539052;28;20031;-30
2022/09/26 06:56:15;;;;;;;2.88;1.80;;;;;;;18.92;61.34;95978.16;10520333;28;20125;-30
2022/09/26 07:01:16;;;;;;;2.40;1.77;;;;;;;18.92;61.49;95978.97;10520949;28;20040;-31
2022/09/26 07:06:23;;;;;;;4.38;2.22;;;;;;;18.92;61.47;95978.16;10519701;28;20032;-31
2022/09/26 07:11:25;;;;;;;3.00;2.15;;;;;;;18.91;61.57;95962.06;10519927;28;20032;-30
2022/09/26 07:16:25;;;;;;;2.83;2.10;;;;;;;18.90;61.78;95957.88;10519615;28;20039;-30
2022/09/26 07:21:31;;;;;;;2.78;2.10;;;;;;;18.82;61.56;95941.09;10519816;28;20132;-30
2022/09/26 07:26:37;;;;;;;7.10;2.35;;;;;;;18.93;61.88;95960.34;10547289;28;20080;-30
2022/09/26 07:31:38;;;;;;;3.33;1.95;;;;;;;18.92;61.93;95953.59;10561162;28;20092;-30
2022/09/26 07:36:39;;;;;;;7.37;2.07;;;;;;;18.93;60.95;95955.28;10550845;28;20040;-30
2022/09/26 07:41:42;;;;;;;3.45;2.03;;;;;;;18.94;60.93;95961.19;10518430;28;20131;-31
2022/09/26 07:52:02;;;;;;;2.97;2.28;;;;;;;18.91;61.34;95957.00;10517181;28;20124;-30
2022/09/26 07:57:18;;;;;;;2.93;1.80;;;;;;;18.91;61.18;95961.25;10518062;28;20028;-30
2022/09/26 08:02:41;;;;;;;3.70;2.33;;;;;;;18.92;61.35;95962.94;10518048;28;20036;-30
2022/09/26 08:07:41;;;;;;;3.55;2.08;;;;;;;18.92;61.48;95955.31;10539570;28;20134;-30
2022/09/26 08:12:49;;;;;;;2.47;1.85;;;;;;;18.91;61.42;95951.94;10538067;28;20032;-30
2022/09/26 08:18:16;;;;;;;4.07;2.20;;;;;;;18.89;61.81;95957.88;10532334;28;20040;-32
2022/09/26 08:23:16;;;;;;;2.07;1.70;;;;;;;18.91;61.75;95956.19;10534798;28;20293;-31
2022/09/26 08:28:18;;;;;;;2.67;1.63;;;;;;;19.00;61.57;95953.50;10516433;28;20403;-30
2022/09/26 08:33:20;;;;;;;4.10;1.67;;;;;;;18.98;61.34;95948.44;10534810;28;20038;-30
2022/09/26 08:38:22;;;;;;;3.53;1.55;;;;;;;18.93;60.87;95936.69;10516148;28;20036;-30
2022/09/26 08:43:48;;;;;;;3.33;1.80;;;;;;;18.92;61.07;95917.28;10534266;28;20032;-29
2022/09/26 08:49:26;;;;;;;1.67;1.50;;;;;;;18.93;60.85;95929.91;10534329;28;20519;-30
2022/09/26 08:54:38;;;;;;;2.42;1.65;;;;;;;18.92;61.30;95937.56;10515539;28;20032;-30
2022/09/26 08:59:45;;;;;;;2.42;1.50;;;;;;;18.89;61.19;95924.91;10515586;28;20065;-31
2022/09/26 09:05:20;;;;;;;2.00;1.58;;;;;;;18.91;61.17;95920.69;10514566;28;20107;-31
2022/09/26 09:10:46;;;;;;;3.83;2.00;;;;;;;18.91;61.35;95920.69;10512828;28;20040;-31
2022/09/26 09:16:33;;;;;;;2.20;1.75;;;;;;;18.91;61.47;95913.88;10514795;28;20040;-30
2022/09/26 09:22:29;;;;;;;2.47;1.52;;;;;;;18.91;61.83;95910.53;10521798;28;20040;-30
2022/09/26 09:27:50;;;;;;;1.83;1.60;;;;;;;18.95;61.55;95910.47;10514695;28;20494;-30
2022/09/26 09:33:02;;;;;;;3.15;1.80;;;;;;;18.99;61.31;95904.47;10531453;28;20054;-30
2022/09/26 09:38:21;;;;;;;1.98;1.77;;;;;;;18.91;61.02;95906.28;10514123;28;20040;-30
2022/09/26 09:43:42;;;;;;;2.72;1.55;;;;;;;18.91;60.97;95900.38;10514154;28;20035;-30
2022/09/26 09:48:46;;;;;;;1.58;1.48;;;;;;;18.91;61.06;95896.13;10514245;28;20023;-29
2022/09/26 09:53:50;;;;;;;1.88;1.45;;;;;;;18.92;61.33;95902.06;10514104;28;20056;-30
2022/09/26 09:59:11;;;;;;;3.38;1.60;;;;;;;18.91;61.17;95898.66;10542711;28;20039;-31
2022/09/26 10:04:43;;;;;;;2.17;1.60;;;;;;;18.91;61.20;95895.31;10556123;28;20058;-30
2022/09/26 10:09:44;;;;;;;2.15;1.45;;;;;;;18.91;61.40;95885.16;10517121;28;20036;-30
2022/09/26 10:15:18;;;;;;;3.03;1.73;;;;;;;18.91;61.32;95895.31;10533742;28;20068;-30
2022/09/26 10:20:39;;;;;;;2.10;1.58;;;;;;;18.91;61.32;95883.44;10540050;28;20115;-29
2022/09/26 10:25:47;;;;;;;2.08;1.60;;;;;;;18.92;61.87;95877.50;10522017;28;20105;-30
2022/09/26 10:30:55;;;;;;;;;;;;;;;19.00;61.44;95874.88;10521937;28;20127;-30
2022/09/26 10:36:08;;;;;;;3.15;1.48;;;;;;;18.91;60.78;95873.31;10520901;28;19912;-30
2022/09/26 10:41:22;;;;;;;2.38;1.55;;;;;;;18.88;60.28;95880.97;10543995;28;20028;-31
2022/09/26 10:46:23;;;;;;;1.80;1.50;;;;;;;18.71;58.94;95867.69;10565589;27;20059;-30
2022/09/26 10:52:07;;;;;;;3.42;1.70;;;;;;;18.86;60.12;95869.16;10561538;27;20139;-30
2022/09/26 10:57:18;;;;;;;4.75;2.63;;;;;;;18.89;60.59;95861.50;10539908;27;20038;-31
2022/09/26 11:02:23;;;;;;;3.15;1.92;;;;;;;18.90;60.96;95853.03;10558925;27;20019;-30
2022/09/26 11:07:28;;;;;;;7.63;2.45;;;;;;;18.91;61.11;95859.81;10563571;28;20628;-30
2022/09/26 11:12:56;;;;;;;8.82;3.72;;;;;;;18.92;61.43;95853.88;10569486;27;20368;-30
2022/09/26 11:17:57;;;;;;;14.70;4.00;;;;;;;18.91;61.12;95854.72;10562110;28;20491;-30
2022/09/26 11:23:06;;;;;;;12.20;4.90;;;;;;;18.94;61.58;95844.53;10549135;28;20039;-30
2022/09/26 11:28:13;;;;;;;12.30;3.80;;;;;;;18.97;61.83;95844.47;10570724;27;20031;-30
2022/09/26 11:33:34;;;;;;;10.10;2.63;;;;;;;18.90;60.57;95837.81;10609825;27;20055;-31
2022/09/26 11:39:34;;;;;;;6.60;2.92;;;;;;;18.86;60.63;95831.97;10547493;28;20035;-30
2022/09/26 11:44:58;;;;;;;14.57;3.67;;;;;;;18.87;60.81;95822.66;10557106;28;20531;-31
2022/09/26 11:50:19;;;;;;;10.35;3.10;;;;;;;18.85;60.63;95824.38;10563603;28;20051;-29
2022/09/26 11:56:09;;;;;;;13.63;3.55;;;;;;;18.84;61.51;95812.56;10550053;27;20069;-30
2022/09/26 12:01:45;;;;;;;13.23;3.17;;;;;;;18.83;61.33;95801.56;10537251;28;20103;-30
2022/09/26 12:07:00;;;;;;;11.47;3.07;;;;;;;18.82;61.21;95789.75;10537019;28;20042;-30
2022/09/26 12:12:23;;;;;;;10.13;3.22;;;;;;;18.82;61.38;95783.88;10536898;28;20498;-29
2022/09/26 12:17:39;;;;;;;11.00;2.88;;;;;;;18.87;61.94;95777.00;10535105;28;20424;-30
2022/09/26 12:22:46;;;;;;;13.82;3.25;;;;;;;18.89;61.65;95760.91;10535647;28;20043;-31
2022/09/26 12:27:52;;;;;;;17.20;3.88;;;;;;;18.97;61.23;95754.00;10554023;28;20526;-31
2022/09/26 12:33:04;;;;;;;10.90;2.60;;;;;;;18.88;60.59;95738.09;10577607;28;20510;-30
2022/09/26 12:38:17;;;;;;;10.23;2.97;;;;;;;18.87;60.46;95727.13;10576017;27;20122;-30
2022/09/26 12:43:57;;;;;;;8.15;3.13;;;;;;;18.89;61.49;95739.78;10574765;28;20031;-30
2022/09/26 12:49:28;;;;;;;9.32;3.20;;;;;;;18.90;61.63;95727.06;10560329;28;20559;-30
2022/09/26 12:54:58;;;;;;;10.15;2.65;;;;;;;18.90;61.35;95708.47;10575740;28;20040;-30
2022/09/26 13:00:10;;;;;;;8.20;2.85;;;;;;;18.88;61.62;95702.59;10538891;28;20056;-30
2022/09/26 13:05:14;;;;;;;6.47;2.30;;;;;;;18.85;61.24;95688.25;10516670;28;20047;-30
2022/09/26 13:10:31;;;;;;;15.75;2.65;;;;;;;18.90;61.03;95678.03;10534695;28;20043;-30
2022/09/26 13:16:11;;;;;;;20.88;4.78;;;;;;;18.92;60.25;95691.53;10533589;28;20056;-30
2022/09/26 13:21:18;;;;;;;10.57;2.33;;;;;;;18.94;60.82;95712.63;10534091;28;20036;-30
2022/09/26 13:26:31;;;;;;;24.45;3.83;;;;;;;19.03;62.01;95689.66;10534445;28;20036;-31
2022/09/26 13:31:39;;;;;;;10.43;2.95;;;;;;;19.01;62.08;95694.72;10535275;28;20032;-31
2022/09/26 13:36:42;;;;;;;9.95;2.42;;;;;;;19.01;60.19;95678.69;10534994;28;20028;-30
2022/09/26 13:42:00;;;;;;;6.05;1.92;;;;;;;18.97;59.99;95666.91;10545004;28;20558;-30
2022/09/26 13:47:22;;;;;;;6.40;2.30;;;;;;;18.92;59.75;95674.63;10576548;28;20150;-30
2022/09/26 13:52:39;;;;;;;3.60;1.80;;;;;;;18.90;59.88;95651.00;10582761;28;20066;-30
2022/09/26 13:58:05;;;;;;;15.57;2.70;;;;;;;18.84;60.29;95650.28;10578743;28;20035;-30
2022/09/26 14:03:09;;;;;;;7.68;2.78;;;;;;;18.84;59.85;95624.91;10584234;28;20058;-30
2022/09/26 14:13:45;;;;;;;6.00;2.10;;;;;;;18.89;59.73;95607.91;10569876;28;20035;-31
2022/09/26 14:19:24;;;;;;;10.05;3.30;;;;;;;18.91;59.55;95601.13;10585326;28;20036;-31
2022/09/26 14:24:31;;;;;;;9.50;3.45;;;;;;;18.98;61.76;95595.03;10541743;28;20039;-30
2022/09/26 14:29:31;;;;;;;6.53;2.45;;;;;;;19.05;61.87;95586.44;10576763;28;20035;-30
2022/09/26 14:34:40;;;;;;;5.38;2.08;;;;;;;19.05;60.25;95578.84;10575486;28;20118;-30
2022/09/26 14:39:43;;;;;;;4.22;1.85;;;;;;;19.02;59.82;95573.84;10541232;28;20036;-31
2022/09/26 14:44:56;;;;;;;5.53;2.00;;;;;;;18.95;59.58;95567.22;10575807;28;20027;-31
2022/09/26 14:50:12;;;;;;;4.75;1.90;;;;;;;18.83;59.01;95555.59;10566636;28;20041;-30
2022/09/26 14:55:14;;;;;;;6.93;1.93;;;;;;;18.88;60.21;95540.28;10538977;28;20509;-30
2022/09/26 15:00:35;;;;;;;11.90;2.20;;;;;;;18.91;60.24;95552.94;10538912;28;20040;-30
2022/09/26 15:05:39;;;;;;;5.78;2.13;;;;;;;18.91;60.07;95552.94;10537212;28;20113;-30
2022/09/26 15:10:40;;;;;;;5.93;1.88;;;;;;;18.83;59.59;95534.50;10538382;28;21027;-30
2022/09/26 15:15:49;;;;;;;6.25;1.60;;;;;;;18.89;59.72;95531.81;10579139;28;20035;-30
2022/09/26 15:20:54;;;;;;;8.27;2.40;;;;;;;18.88;60.26;95525.94;10543506;28;20036;-29
2022/09/26 15:25:59;;;;;;;6.80;2.35;;;;;;;19.05;61.45;95526.41;10537541;28;20032;-30
2022/09/26 15:31:27;;;;;;;4.90;2.40;;;;;;;19.10;60.58;95513.63;10537358;28;20031;-31
2022/09/26 15:36:30;;;;;;;8.38;2.42;;;;;;;19.03;61.06;95512.09;10536353;28;20044;-31
2022/09/26 15:46:57;;;;;;;5.63;2.33;;;;;;;18.94;60.92;95507.22;10546588;28;20073;-30
2022/09/26 15:51:57;;;;;;;5.70;2.40;;;;;;;18.95;61.18;95506.34;10547916;28;20059;-30
2022/09/26 15:57:01;;;;;;;10.20;2.45;;;;;;;18.93;60.69;95497.94;10548873;28;20123;-30
2022/09/26 16:02:02;;;;;;;6.45;2.95;;;;;;;18.93;60.42;95495.41;10578234;28;20031;-30
2022/09/26 16:07:18;;;;;;;4.82;2.53;;;;;;;18.93;60.01;95492.88;10542918;28;20036;-30
2022/09/26 16:12:26;;;;;;;5.03;2.38;;;;;;;18.92;60.00;95483.59;10535376;28;20036;-30
2022/09/26 16:17:31;;;;;;;6.60;2.58;;;;;;;18.93;60.38;95491.16;10536296;28;20040;-30
2022/09/26 16:22:44;;;;;;;6.18;2.35;;;;;;;18.99;62.41;95491.03;10553508;28;20078;-30
2022/09/26 16:27:48;;;;;;;5.50;2.20;;;;;;;19.01;62.47;95485.94;10555776;28;20039;-30
2022/09/26 16:33:11;;;;;;;4.57;2.20;;;;;;;19.03;61.17;95494.31;10534726;28;20036;-30
2022/09/26 16:38:35;;;;;;;5.45;2.20;;;;;;;18.84;59.13;95493.06;10535820;28;20492;-31
2022/09/26 16:43:37;;;;;;;4.28;1.75;;;;;;;18.89;60.43;95488.69;10527158;28;20040;-30
2022/09/26 16:48:42;;;;;;;3.75;2.00;;;;;;;18.89;60.33;95483.63;10534314;28;20032;-30
2022/09/26 16:54:19;;;;;;;7.68;1.98;;;;;;;18.89;60.20;95470.94;10534633;28;20036;-30
2022/09/26 16:59:27;;;;;;;6.38;2.30;;;;;;;18.88;60.38;95480.28;10529454;28;20063;-30
2022/09/26 17:04:31;;;;;;;5.82;1.70;;;;;;;18.88;60.05;95474.34;10533334;28;20052;-33
2022/09/26 17:09:31;;;;;;;3.60;1.70;;;;;;;18.83;60.01;95469.38;10533901;28;20603;-30
2022/09/26 17:14:38;;;;;;;15.90;2.33;;;;;;;18.88;60.92;95485.34;10567453;28;20073;-30
2022/09/26 17:19:42;;;;;;;8.65;1.80;;;;;;;18.87;60.97;95477.75;10574834;28;20051;-30
2022/09/26 17:24:42;;;;;;;7.43;2.40;;;;;;;18.96;62.09;95477.56;10575285;28;20123;-30
2022/09/26 17:29:47;;;;;;;7.97;2.13;;;;;;;19.00;61.65;95469.84;10537811;28;20116;-30
2022/09/26 17:34:48;;;;;;;3.45;1.90;;;;;;;18.93;61.22;95468.31;10532478;28;20106;-30
2022/09/26 17:39:48;;;;;;;7.10;2.38;;;;;;;18.92;61.17;95460.75;10532680;28;20059;-30
2022/09/26 17:44:49;;;;;;;5.10;1.90;;;;;;;18.89;60.29;95448.13;10572409;28;20032;-29
2022/09/26 17:49:53;;;;;;;7.25;1.80;;;;;;;18.94;61.02;95451.41;10567993;28;20331;-30
2022/09/26 17:54:56;;;;;;;8.60;1.90;;;;;;;18.93;61.22;95437.06;10575706;28;20081;-30
2022/09/26 17:59:56;;;;;;;7.22;2.15;;;;;;;18.97;62.06;95428.50;10587152;28;20039;-31
2022/09/26 18:05:02;;;;;;;9.20;2.47;;;;;;;18.98;61.69;95425.09;10566401;28;20047;-31
2022/09/26 18:10:14;;;;;;;8.23;2.40;;;;;;;18.98;60.66;95430.16;10488912;28;20321;-30
2022/09/26 18:15:19;;;;;;;12.20;3.20;;;;;;;18.96;61.65;95416.69;10536691;28;20035;-30
2022/09/26 18:20:36;;;;;;;13.33;2.70;;;;;;;19.03;62.44;95419.09;10527767;28;20040;-30
2022/09/26 18:25:36;;;;;;;6.57;3.00;;;;;;;19.06;62.73;95408.00;10534064;28;20051;-30
2022/09/26 18:30:40;;;;;;;8.43;2.73;;;;;;;19.05;62.53;95398.72;10520447;28;20744;-29
2022/09/26 18:35:42;;;;;;;8.32;2.30;;;;;;;19.07;62.04;95405.44;10517946;28;20372;-30
2022/09/26 18:40:50;;;;;;;5.50;2.15;;;;;;;19.06;60.63;95402.94;10544042;28;20067;-30
2022/09/26 18:45:50;;;;;;;5.55;2.17;;;;;;;18.98;61.48;95369.31;10493777;28;20284;-30
2022/09/26 18:50:52;;;;;;;7.13;3.03;;;;;;;19.05;61.52;95376.75;10495918;28;20204;-31
2022/09/26 19:01:22;;;;;;;5.18;1.95;;;;;;;19.00;60.15;95377.75;10509722;28;20039;-30
2022/09/26 19:06:33;;;;;;;3.90;2.00;;;;;;;19.00;61.33;95387.88;10508595;28;20068;-30
2022/09/26 19:11:34;;;;;;;4.30;1.90;;;;;;;19.00;61.16;95385.34;10512823;28;20081;-30
2022/09/26 19:16:34;;;;;;;6.45;1.67;;;;;;;18.99;61.41;95391.28;10508557;28;20094;-30
2022/09/26 19:22:11;;;;;;;5.70;2.23;;;;;;;19.00;64.21;95382.81;10505203;28;20036;-30
2022/09/26 19:27:12;;;;;;;;;;;;;;;19.01;64.23;95395.44;10525648;28;20115;-30
2022/09/26 19:32:34;;;;;;;5.50;2.27;;;;;;;19.04;64.30;95422.44;10503490;28;20294;-29
2022/09/26 19:37:35;;;;;;;3.63;1.50;;;;;;;19.02;61.50;95421.66;10541825;28;20031;-30
2022/09/26 19:42:35;;;;;;;6.13;1.77;;;;;;;18.90;61.41;95416.81;10524675;28;20039;-30
2022/09/26 19:47:38;;;;;;;2.70;1.97;;;;;;;18.95;62.06;95417.56;10523968;28;20281;-30
2022/09/26 19:52:38;;;;;;;4.88;1.63;;;;;;;18.89;62.04;95394.88;10541452;28;20031;-30
2022/09/26 19:57:39;;;;;;;4.27;1.90;;;;;;;18.90;62.06;95399.06;10515647;28;20038;-30
2022/09/26 20:02:39;;;;;;;2.97;1.47;;;;;;;18.96;62.33;95416.69;10516204;28;20057;-29
2022/09/26 20:07:40;;;;;;;2.78;1.52;;;;;;;18.95;61.90;95415.03;10504611;28;20056;-30
2022/09/26 20:12:44;;;;;;;3.20;1.67;;;;;;;18.94;61.83;95398.16;10494225;28;20029;-30
2022/09/26 20:17:45;;;;;;;4.75;1.95;;;;;;;18.96;61.97;95376.13;10492963;28;20435;-30
2022/09/26 20:22:46;;;;;;;5.28;2.08;;;;;;;19.02;63.81;95370.91;10495381;28;20114;-30
2022/09/26 20:27:46;;;;;;;3.78;1.80;;;;;;;19.04;63.35;95353.94;10495346;28;20119;-30
2022/09/26 20:32:47;;;;;;;3.13;1.37;;;;;;;18.95;62.90;95349.09;10494536;28;20135;-30
2022/09/26 20:37:47;;;;;;;3.30;1.67;;;;;;;18.95;62.44;95341.50;10494026;28;20037;-31
2022/09/26 20:42:54;;;;;;;8.90;2.00;;;;;;;18.93;62.32;95344.06;10513525;28;20449;-30
2022/09/26 20:47:54;;;;;;;;;;;;;;;18.93;62.07;95346.59;10535401;28;20035;-30
2022/09/26 20:52:55;;;;;;;3.47;1.85;;;;;;;18.86;62.19;95336.63;10509641;28;19912;-30
2022/09/26 20:57:56;;;;;;;2.83;1.40;;;;;;;18.91;61.86;95332.31;10513019;28;20498;-30
2022/09/26 21:02:56;;;;;;;4.30;1.80;;;;;;;18.91;62.17;95322.97;10534613;28;20420;-31
2022/09/26 21:07:58;;;;;;;4.30;1.75;;;;;;;18.89;62.06;95318.81;10511140;28;20032;-30
2022/09/26 21:12:59;;;;;;;3.70;1.73;;;;;;;18.90;62.08;95307.78;10512953;28;20035;-30
2022/09/26 21:18:00;;;;;;;2.55;1.50;;;;;;;18.89;61.65;95303.59;10533419;28;20084;-30
2022/09/26 21:23:02;;;;;;;3.63;1.45;;;;;;;18.98;62.88;95280.53;10492876;28;20029;-31
2022/09/26 21:28:19;;;;;;;3.38;1.60;;;;;;;19.02;62.76;95265.22;10523695;28;20035;-30
2022/09/26 21:33:20;;;;;;;2.42;1.70;;;;;;;18.93;62.00;95260.38;10529682;28;20115;-30
2022/09/26 21:38:21;;;;;;;3.00;1.45;;;;;;;18.91;62.12;95256.22;10492085;28;20408;-29
2022/09/26 21:43:26;;;;;;;2.65;1.50;;;;;;;18.89;62.27;95222.44;10491015;28;20059;-30
2022/09/26 21:48:26;;;;;;;1.55;1.10;;;;;;;18.88;62.21;95225.84;10491132;28;20040;-32
2022/09/26 21:53:44;;;;;;;2.25;1.20;;;;;;;18.88;62.13;95236.84;10491323;28;20479;-30
2022/09/26 21:58:45;;;;;;;3.33;1.48;;;;;;;18.87;61.89;95224.19;10518885;28;20174;-31
2022/09/26 22:03:46;;;;;;;3.20;1.35;;;;;;;18.87;62.05;95194.63;10532650;28;20039;-30
2022/09/26 22:08:46;;;;;;;5.97;1.77;;;;;;;18.87;62.10;95193.78;10500660;28;20033;-30
2022/09/26 22:13:46;;;;;;;2.80;1.33;;;;;;;18.87;62.12;95178.56;10525178;28;20286;-30
2022/09/26 22:18:47;;;;;;;2.47;1.30;;;;;;;18.84;62.55;95173.56;10540876;28;20484;-31
2022/09/26 22:23:49;;;;;;;5.07;1.37;;;;;;;18.94;62.64;95168.22;10506098;28;20385;-30
2022/09/26 22:28:49;;;;;;;2.83;1.23;;;;;;;18.95;62.59;95153.84;10499253;28;20086;-30
2022/09/26 22:33:50;;;;;;;4.85;1.25;;;;;;;18.85;62.15;95139.75;10498764;28;20094;-30
2022/09/26 22:38:50;;;;;;;3.23;1.60;;;;;;;18.87;62.25;95130.38;10498304;28;20412;-30
2022/09/26 22:43:51;;;;;;;3.90;1.40;;;;;;;18.88;61.91;95124.44;10525767;28;20484;-30
2022/09/26 22:48:52;;;;;;;2.25;1.27;;;;;;;18.86;61.72;95141.41;10539912;28;20262;-30
2022/09/26 22:53:52;;;;;;;1.47;1.00;;;;;;;18.86;62.10;95142.25;10508802;28;20044;-30
2022/09/26 22:58:53;;;;;;;2.55;1.15;;;;;;;18.85;61.86;95112.66;10497412;28;20118;-30
2022/09/26 23:03:54;;;;;;;3.58;1.30;;;;;;;18.86;61.81;95110.97;10497394;28;20028;-31
2022/09/26 23:08:54;;;;;;;3.05;1.60;;;;;;;18.84;61.83;95118.59;10497073;28;20025;-30
2022/09/26 23:13:55;;;;;;;1.60;1.15;;;;;;;18.85;61.96;95104.25;10497436;28;20042;-30
2022/09/26 23:18:56;;;;;;;1.10;0.80;;;;;;;18.88;62.45;95094.84;10497390;28;20041;-30
2022/09/26 23:23:57;;;;;;;4.50;1.50;;;;;;;18.95;62.36;95090.44;10497157;28;20282;-30
2022/09/26 23:28:58;;;;;;;3.35;1.30;;;;;;;18.96;62.08;95087.03;10497050;28;20075;-31
2022/09/26 23:33:58;;;;;;;2.05;1.20;;;;;;;18.88;61.88;95094.84;10496467;28;20024;-30
2022/09/26 23:38:59;;;;;;;2.30;1.20;;;;;;;18.84;61.79;95100.88;10496876;28;20040;-30
2022/09/26 23:43:59;;;;;;;2.10;1.55;;;;;;;18.85;62.02;95081.44;10496181;28;20085;-30
2022/09/26 23:49:00;;;;;;;1.35;0.95;;;;;;;18.84;61.54;95062.03;10496676;28;20115;-31
2022/09/26 23:54:01;;;;;;;3.53;1.33;;;;;;;18.84;62.15;95056.94;10496730;28;20115;-31
2022/09/26 23:59:01;;;;;;;3.03;1.15;;;;;;;18.84;61.92;95054.41;10525180;28;20563;-30
